createdAt,value
2019-06-07T00:02:01.653Z,5.07
2019-06-07T00:04:33.390Z,5.47
2019-06-07T00:07:08.583Z,5.03
2019-06-07T00:09:39.129Z,6.57
2019-06-07T00:12:12.287Z,5.07
2019-06-07T00:14:44.004Z,4.70
2019-06-07T00:17:17.545Z,4.87
2019-06-07T00:19:48.905Z,6.40
2019-06-07T00:22:32.384Z,6.67
2019-06-07T00:24:54.036Z,8.67
2019-06-07T00:27:25.337Z,7.53
2019-06-07T00:29:57.276Z,6.97
2019-06-07T00:32:28.597Z,8.50
2019-06-07T00:35:00.324Z,6.47
2019-06-07T00:37:31.601Z,9.97
2019-06-07T00:40:13.903Z,8.70
2019-06-07T00:42:37.763Z,9.10
2019-06-07T00:45:11.194Z,5.97
2019-06-07T00:47:42.839Z,7.47
2019-06-07T00:50:16.365Z,8.67
2019-06-07T00:55:27.089Z,6.30
2019-06-07T00:57:54.807Z,5.03
2019-06-07T01:00:26.954Z,5.37
2019-06-07T01:02:58.484Z,6.57
2019-06-07T01:05:31.547Z,6.37
2019-06-07T01:08:04.182Z,7.20
2019-06-07T01:10:53.079Z,7.10
2019-06-07T01:13:09.200Z,8.87
2019-06-07T01:15:41.059Z,7.67
2019-06-07T01:18:36.165Z,5.80
2019-06-07T01:20:45.791Z,5.90
2019-06-07T01:23:55.337Z,11.87
2019-06-07T01:25:50.488Z,6.50
2019-06-07T01:28:26.265Z,7.43
2019-06-07T01:30:56.608Z,9.50
2019-06-07T01:33:49.283Z,6.73
2019-06-07T01:36:01.327Z,8.87
2019-06-07T01:38:33.134Z,7.23
2019-06-07T01:41:04.881Z,6.17
2019-06-07T01:43:36.550Z,8.07
2019-06-07T01:46:08.442Z,11.73
2019-06-07T01:48:49.448Z,5.87
2019-06-07T01:51:13.004Z,12.30
2019-06-07T01:53:44.501Z,14.53
2019-06-07T01:56:18.398Z,7.77
2019-06-07T01:58:49.420Z,6.07
2019-06-07T02:01:23.317Z,6.50
2019-06-07T02:03:55.591Z,10.17
2019-06-07T02:06:31.365Z,8.63
2019-06-07T02:09:00.021Z,7.70
2019-06-07T02:11:33.470Z,6.40
2019-06-07T02:14:05.008Z,5.63
2019-06-07T02:16:49.948Z,6.93
2019-06-07T02:19:22.040Z,7.63
2019-06-07T02:21:53.973Z,9.07
2019-06-07T02:24:28.811Z,7.03
2019-06-07T02:26:59.223Z,7.20
2019-06-07T02:29:33.380Z,7.40
2019-06-07T02:32:04.910Z,7.27
2019-06-07T02:34:39.567Z,6.47
2019-06-07T02:37:09.531Z,6.00
2019-06-07T02:39:41.270Z,6.73
2019-06-07T02:42:13.130Z,8.83
2019-06-07T02:44:44.813Z,8.73
2019-06-07T02:47:16.553Z,6.13
2019-06-07T02:49:49.163Z,9.60
2019-06-07T02:52:20.630Z,8.40
2019-06-07T02:54:51.998Z,7.93
2019-06-07T02:57:25.732Z,7.73
2019-06-07T03:00:07.786Z,7.43
2019-06-07T03:02:33.563Z,7.13
2019-06-07T03:05:04.899Z,7.87
2019-06-07T03:07:40.233Z,8.40
2019-06-07T03:10:10.182Z,8.97
2019-06-07T03:12:42.300Z,11.30
2019-06-07T03:15:31.961Z,9.67
2019-06-07T03:17:51.016Z,9.37
2019-06-07T03:20:24.316Z,8.87
2019-06-07T03:22:58.909Z,12.10
2019-06-07T03:25:37.009Z,9.07
2019-06-07T03:28:08.372Z,9.60
2019-06-07T03:30:58.197Z,8.53
2019-06-07T03:33:13.808Z,10.97
2019-06-07T03:35:45.671Z,10.17
2019-06-07T03:38:16.978Z,7.47
2019-06-07T03:40:48.742Z,7.67
2019-06-07T03:43:20.026Z,10.83
2019-06-07T03:45:51.646Z,9.03
2019-06-07T03:48:23.037Z,11.87
2019-06-07T03:51:04.322Z,9.50
2019-06-07T03:53:30.476Z,11.40
2019-06-07T03:56:01.443Z,11.80
2019-06-07T03:58:45.738Z,9.93
2019-06-07T04:01:06.944Z,13.10
2019-06-07T04:03:46.299Z,10.10
2019-06-07T04:06:11.433Z,8.83
2019-06-07T04:08:42.851Z,9.63
2019-06-07T04:11:14.114Z,11.43
2019-06-07T04:13:45.450Z,10.60
2019-06-07T04:16:17.150Z,11.20
2019-06-07T04:18:48.514Z,9.73
2019-06-07T04:21:19.904Z,9.00
2019-06-07T04:23:51.183Z,11.45
2019-06-07T04:26:24.623Z,12.73
2019-06-07T04:29:31.869Z,12.80
2019-06-07T04:31:29.055Z,12.63
2019-06-07T04:34:00.801Z,11.87
2019-06-07T04:36:46.111Z,10.93
2019-06-07T04:39:06.954Z,10.67
2019-06-07T04:41:40.784Z,11.20
2019-06-07T04:44:14.347Z,10.20
2019-06-07T04:46:46.965Z,13.13
2019-06-07T04:49:19.256Z,12.47
2019-06-07T04:51:50.572Z,10.47
2019-06-07T04:54:22.362Z,11.20
2019-06-07T04:56:54.249Z,13.03
2019-06-07T05:00:08.816Z,10.93
2019-06-07T05:01:58.899Z,11.87
2019-06-07T05:04:31.700Z,10.37
2019-06-07T05:07:03.897Z,11.43
2019-06-07T05:09:38.560Z,11.57
2019-06-07T05:12:09.134Z,8.23
2019-06-07T05:14:44.059Z,10.40
2019-06-07T05:17:13.620Z,10.43
2019-06-07T05:19:45.031Z,12.93
2019-06-07T05:22:16.854Z,10.70
2019-06-07T05:25:03.794Z,9.16
2019-06-07T05:27:37.931Z,10.27
2019-06-07T05:30:24.285Z,15.40
2019-06-07T05:32:45.788Z,9.43
2019-06-07T05:35:16.073Z,8.87
2019-06-07T05:37:47.771Z,12.57
2019-06-07T05:40:23.172Z,9.23
2019-06-07T05:42:54.676Z,9.47
2019-06-07T05:45:29.822Z,9.00
2019-06-07T05:48:02.672Z,10.83
2019-06-07T05:50:44.965Z,6.50
2019-06-07T05:53:08.575Z,6.20
2019-06-07T05:55:44.117Z,12.13
2019-06-07T05:58:13.857Z,10.53
2019-06-07T06:00:47.571Z,8.80
2019-06-07T06:03:18.933Z,7.37
2019-06-07T06:05:55.186Z,8.87
2019-06-07T06:08:24.728Z,9.33
2019-06-07T06:10:56.075Z,8.23
2019-06-07T06:13:27.463Z,9.43
2019-06-07T06:16:02.163Z,9.63
2019-06-07T06:18:32.747Z,8.03
2019-06-07T06:21:18.726Z,11.00
2019-06-07T06:23:39.512Z,7.70
2019-06-07T06:26:10.732Z,10.37
2019-06-07T06:28:42.731Z,6.83
2019-06-07T06:31:15.560Z,8.47
2019-06-07T06:33:49.942Z,8.20
2019-06-07T06:36:21.971Z,6.63
2019-06-07T06:38:53.701Z,6.70
2019-06-07T06:41:25.513Z,6.23
2019-06-07T06:43:56.863Z,7.30
2019-06-07T06:46:38.539Z,9.27
2019-06-07T06:49:01.643Z,7.23
2019-06-07T06:51:33.233Z,9.20
2019-06-07T06:54:04.742Z,12.17
2019-06-07T06:56:37.261Z,9.33
2019-06-07T07:01:42.534Z,12.00
2019-06-07T07:04:14.145Z,10.97
2019-06-07T07:06:45.922Z,8.23
2019-06-07T07:09:17.331Z,5.47
2019-06-07T07:12:08.860Z,10.40
2019-06-07T07:14:21.881Z,7.27
2019-06-07T07:16:56.432Z,6.50
2019-06-07T07:19:26.814Z,8.37
2019-06-07T07:21:58.186Z,11.23
2019-06-07T07:24:29.810Z,10.67
2019-06-07T07:27:01.069Z,5.73
2019-06-07T07:29:32.533Z,9.37
2019-06-07T07:32:04.381Z,9.40
2019-06-07T07:34:37.508Z,10.00
2019-06-07T07:37:08.867Z,7.40
2019-06-07T07:39:40.205Z,10.77
2019-06-07T07:42:20.905Z,11.33
2019-06-07T07:44:47.200Z,8.50
2019-06-07T07:47:18.647Z,8.60
2019-06-07T07:49:54.028Z,9.10
2019-06-07T07:52:23.708Z,7.93
2019-06-07T07:54:57.858Z,6.97
2019-06-07T07:57:28.488Z,10.03
2019-06-07T08:00:25.738Z,5.50
2019-06-07T08:02:33.371Z,5.63
2019-06-07T08:05:21.803Z,4.33
2019-06-07T08:07:41.359Z,5.70
2019-06-07T08:10:13.393Z,5.63
2019-06-07T08:13:07.237Z,5.83
2019-06-07T08:15:18.669Z,9.40
2019-06-07T08:17:55.488Z,6.30
2019-06-07T08:20:23.327Z,8.13
2019-06-07T08:22:58.811Z,6.17
2019-06-07T08:25:28.123Z,7.03
2019-06-07T08:28:00.179Z,6.00
2019-06-07T08:30:52.365Z,5.87
2019-06-07T08:33:24.584Z,6.13
2019-06-07T08:38:26.658Z,5.87
2019-06-07T08:40:45.254Z,4.73
2019-06-07T08:43:20.756Z,5.67
2019-06-07T08:45:53.183Z,6.73
2019-06-07T08:48:27.758Z,7.83
2019-06-07T08:51:04.336Z,9.10
2019-06-07T08:53:30.505Z,7.33
2019-06-07T08:56:09.649Z,6.30
2019-06-07T08:58:35.286Z,7.20
2019-06-07T09:01:08.923Z,5.53
2019-06-07T09:03:40.193Z,5.83
2019-06-07T09:06:54.006Z,4.83
2019-06-07T09:08:45.564Z,5.93
2019-06-07T09:11:17.074Z,5.10
2019-06-07T09:13:48.417Z,5.73
2019-06-07T09:16:19.867Z,4.60
2019-06-07T09:18:51.142Z,7.33
2019-06-07T09:21:22.671Z,5.30
2019-06-07T09:23:54.701Z,5.40
2019-06-07T09:26:28.012Z,6.63
2019-06-07T09:29:03.295Z,7.93
2019-06-07T09:31:51.220Z,7.30
2019-06-07T09:34:13.734Z,5.67
2019-06-07T09:36:40.106Z,6.60
2019-06-07T09:39:12.638Z,7.80
2019-06-07T09:41:49.734Z,5.90
2019-06-07T09:44:24.877Z,7.60
2019-06-07T09:47:13.980Z,5.33
2019-06-07T09:49:32.093Z,7.23
2019-06-07T09:52:00.516Z,4.63
2019-06-07T09:55:03.909Z,5.87
2019-06-07T09:57:10.980Z,6.43
2019-06-07T09:59:38.382Z,4.03
2019-06-07T10:02:13.732Z,5.27
2019-06-07T10:04:43.089Z,6.50
2019-06-07T10:07:30.645Z,5.57
2019-06-07T10:12:21.241Z,4.23
2019-06-07T10:14:52.873Z,4.03
2019-06-07T10:17:24.930Z,4.30
2019-06-07T10:19:56.451Z,5.17
2019-06-07T10:22:28.004Z,4.25
2019-06-07T10:24:59.705Z,5.60
2019-06-07T10:27:31.234Z,5.57
2019-06-07T10:30:08.074Z,4.17
2019-06-07T10:32:39.767Z,4.97
2019-06-07T10:35:13.859Z,3.27
2019-06-07T10:37:44.305Z,4.97
2019-06-07T10:40:16.578Z,6.37
2019-06-07T10:42:47.992Z,3.93
2019-06-07T10:45:19.885Z,4.73
2019-06-07T10:47:51.394Z,4.53
2019-06-07T10:50:23.279Z,4.23
2019-06-07T10:52:55.028Z,5.07
2019-06-07T10:55:27.350Z,3.57
2019-06-07T10:57:58.762Z,3.57
2019-06-07T11:00:30.318Z,3.43
2019-06-07T11:03:01.784Z,4.37
2019-06-07T11:05:33.132Z,8.37
2019-06-07T11:08:05.899Z,2.80
2019-06-07T11:10:37.425Z,3.83
2019-06-07T11:13:10.261Z,6.83
2019-06-07T11:15:41.963Z,5.05
2019-06-07T11:18:14.459Z,3.12
2019-06-07T11:20:46.004Z,3.37
2019-06-07T11:23:18.581Z,5.03
2019-06-07T11:25:49.878Z,7.62
2019-06-07T11:28:21.110Z,5.95
2019-06-07T11:30:52.650Z,5.30
2019-06-07T11:33:24.456Z,4.17
2019-06-07T11:35:56.270Z,4.72
2019-06-07T11:38:27.653Z,3.67
2019-06-07T11:40:59.058Z,5.70
2019-06-07T11:43:30.552Z,5.92
2019-06-07T11:46:02.134Z,3.80
2019-06-07T11:48:34.051Z,3.37
2019-06-07T11:51:06.665Z,3.55
2019-06-07T11:53:38.206Z,5.25
2019-06-07T11:56:10.306Z,7.10
2019-06-07T11:58:42.097Z,5.62
2019-06-07T12:01:14.979Z,7.08
2019-06-07T12:03:46.609Z,3.35
2019-06-07T12:06:18.170Z,6.33
2019-06-07T12:08:49.836Z,5.57
2019-06-07T12:11:22.142Z,6.00
2019-06-07T12:13:53.545Z,7.60
2019-06-07T12:16:25.095Z,3.90
2019-06-07T12:18:56.747Z,6.63
2019-06-07T12:21:28.372Z,5.53
2019-06-07T12:23:59.805Z,3.60
2019-06-07T12:26:31.108Z,4.03
2019-06-07T12:29:02.405Z,7.83
2019-06-07T12:31:33.637Z,4.07
2019-06-07T12:34:05.326Z,3.58
2019-06-07T12:36:36.574Z,6.33
2019-06-07T12:39:07.940Z,6.53
2019-06-07T12:41:39.320Z,5.03
2019-06-07T12:44:12.553Z,5.87
2019-06-07T12:46:44.162Z,5.90
2019-06-07T12:49:15.473Z,3.12
2019-06-07T12:51:46.948Z,3.77
2019-06-07T12:54:19.586Z,4.90
2019-06-07T12:56:52.406Z,3.70
2019-06-07T12:59:24.356Z,6.90
2019-06-07T13:01:56.055Z,4.23
2019-06-07T13:04:27.745Z,5.30
2019-06-07T13:06:59.620Z,3.60
2019-06-07T13:09:31.296Z,7.87
2019-06-07T13:12:02.641Z,4.60
2019-06-07T13:14:34.256Z,3.98
2019-06-07T13:17:05.611Z,3.53
2019-06-07T13:19:37.056Z,5.83
2019-06-07T13:22:08.504Z,5.00
2019-06-07T13:24:42.326Z,14.27
2019-06-07T13:27:14.323Z,5.73
2019-06-07T13:29:45.823Z,3.17
2019-06-07T13:32:17.495Z,19.20
2019-06-07T13:34:49.558Z,4.40
2019-06-07T13:37:21.171Z,3.90
2019-06-07T13:39:52.803Z,10.17
2019-06-07T13:42:24.777Z,14.97
2019-06-07T13:44:56.203Z,7.17
2019-06-07T13:47:27.641Z,2.63
2019-06-07T13:49:59.445Z,4.50
2019-06-07T13:52:30.859Z,2.57
2019-06-07T13:55:03.822Z,5.27
2019-06-07T13:57:35.288Z,2.77
2019-06-07T14:00:11.599Z,3.10
2019-06-07T14:02:43.059Z,4.30
2019-06-07T14:05:14.519Z,2.50
2019-06-07T14:07:45.678Z,4.43
2019-06-07T14:10:16.939Z,3.73
2019-06-07T14:12:48.191Z,2.83
2019-06-07T14:15:20.460Z,5.43
2019-06-07T14:17:52.149Z,2.40
2019-06-07T14:20:26.602Z,3.77
2019-06-07T14:22:57.080Z,6.67
2019-06-07T14:25:29.387Z,5.13
2019-06-07T14:28:01.020Z,5.80
2019-06-07T14:30:32.822Z,6.53
2019-06-07T14:33:04.125Z,4.00
2019-06-07T14:35:35.397Z,4.17
2019-06-07T14:38:08.342Z,2.90
2019-06-07T14:40:39.634Z,4.93
2019-06-07T14:43:11.244Z,5.20
2019-06-07T14:45:42.575Z,4.50
2019-06-07T14:48:13.920Z,6.07
2019-06-07T14:50:45.490Z,5.63
2019-06-07T14:53:16.977Z,4.67
2019-06-07T14:55:48.567Z,3.47
2019-06-07T14:58:19.781Z,5.87
2019-06-07T15:00:52.238Z,3.00
2019-06-07T15:03:24.075Z,4.07
2019-06-07T15:05:55.430Z,4.43
2019-06-07T15:08:26.847Z,3.47
2019-06-07T15:10:58.381Z,4.90
2019-06-07T15:13:31.328Z,2.70
2019-06-07T15:16:02.811Z,3.43
2019-06-07T15:18:34.105Z,8.73
2019-06-07T15:21:05.462Z,6.20
2019-06-07T15:23:36.873Z,3.20
2019-06-07T15:26:08.434Z,6.43
2019-06-07T15:28:40.061Z,6.77
2019-06-07T15:31:11.336Z,3.07
2019-06-07T15:33:42.791Z,5.73
2019-06-07T15:36:14.408Z,4.87
2019-06-07T15:38:46.253Z,2.87
2019-06-07T15:41:17.840Z,4.37
2019-06-07T15:43:49.112Z,4.70
2019-06-07T15:46:20.757Z,5.57
2019-06-07T15:48:52.009Z,6.87
2019-06-07T15:51:23.206Z,11.97
2019-06-07T15:53:54.850Z,4.43
2019-06-07T15:56:26.417Z,8.20
2019-06-07T15:58:58.083Z,5.30
2019-06-07T16:01:31.111Z,5.10
2019-06-07T16:04:03.618Z,7.87
2019-06-07T16:06:36.194Z,3.30
2019-06-07T16:09:07.832Z,7.63
2019-06-07T16:11:43.654Z,5.37
2019-06-07T16:14:15.764Z,5.33
2019-06-07T16:16:47.106Z,3.53
2019-06-07T16:19:18.439Z,4.30
2019-06-07T16:21:50.041Z,2.93
2019-06-07T16:24:21.340Z,9.87
2019-06-07T16:26:55.654Z,8.43
2019-06-07T16:29:27.524Z,5.50
2019-06-07T16:31:58.789Z,4.13
2019-06-07T16:34:30.080Z,4.60
2019-06-07T16:37:01.644Z,4.53
2019-06-07T16:39:32.946Z,4.60
2019-06-07T16:42:04.539Z,4.40
2019-06-07T16:44:36.408Z,5.23
2019-06-07T16:47:07.705Z,5.77
2019-06-07T16:49:39.115Z,4.50
2019-06-07T16:52:10.492Z,8.90
2019-06-07T16:54:41.873Z,6.90
2019-06-07T16:57:13.291Z,6.70
2019-06-07T16:59:48.946Z,9.70
2019-06-07T17:02:18.064Z,9.93
2019-06-07T17:04:49.346Z,9.00
2019-06-07T17:07:21.097Z,8.53
2019-06-07T17:09:52.418Z,12.40
2019-06-07T17:12:23.717Z,12.80
2019-06-07T17:14:54.972Z,10.53
2019-06-07T17:17:26.248Z,8.90
2019-06-07T17:19:57.769Z,11.30
2019-06-07T17:22:29.049Z,11.57
2019-06-07T17:25:00.456Z,9.20
2019-06-07T17:27:31.871Z,22.37
2019-06-07T17:30:08.039Z,33.97
2019-06-07T17:32:51.798Z,22.57
2019-06-07T17:35:13.098Z,16.67
2019-06-07T17:37:46.309Z,18.07
2019-06-07T17:40:19.020Z,46.13
2019-06-07T17:42:51.003Z,15.27
2019-06-07T17:45:22.756Z,14.13
2019-06-07T17:47:54.318Z,10.57
2019-06-07T17:50:25.712Z,12.13
2019-06-07T17:52:57.621Z,12.43
2019-06-07T17:55:29.097Z,8.80
2019-06-07T17:58:00.396Z,11.20
2019-06-07T18:00:51.279Z,18.70
2019-06-07T18:03:22.711Z,14.13
2019-06-07T18:05:55.231Z,15.57
2019-06-07T18:08:27.989Z,18.17
2019-06-07T18:10:59.897Z,14.63
2019-06-07T18:13:31.192Z,24.53
2019-06-07T18:16:03.031Z,22.67
2019-06-07T18:18:34.366Z,22.97
2019-06-07T18:21:06.049Z,23.70
2019-06-07T18:23:37.557Z,22.63
2019-06-07T18:26:09.973Z,17.47
2019-06-07T18:28:41.562Z,20.63
2019-06-07T18:31:12.812Z,20.27
2019-06-07T18:33:46.799Z,16.83
2019-06-07T18:36:18.537Z,11.30
2019-06-07T18:38:50.910Z,10.33
2019-06-07T18:41:22.871Z,12.23
2019-06-07T18:43:55.350Z,11.03
2019-06-07T18:46:26.934Z,15.37
2019-06-07T18:48:58.768Z,15.63
2019-06-07T18:51:30.639Z,13.53
2019-06-07T18:54:02.237Z,10.93
2019-06-07T18:56:33.857Z,15.30
2019-06-07T18:59:05.317Z,15.33
2019-06-07T19:01:36.734Z,10.67
2019-06-07T19:04:08.353Z,12.80
2019-06-07T19:06:39.635Z,15.33
2019-06-07T19:09:10.821Z,14.30
2019-06-07T19:11:42.529Z,14.23
2019-06-07T19:14:13.807Z,15.83
2019-06-07T19:16:45.422Z,18.53
2019-06-07T19:19:17.194Z,14.10
2019-06-07T19:21:49.918Z,28.87
2019-06-07T19:24:21.340Z,29.37
2019-06-07T19:26:52.659Z,21.23
2019-06-07T19:29:23.997Z,24.67
2019-06-07T19:31:57.268Z,34.73
2019-06-07T19:34:28.874Z,35.77
2019-06-07T19:37:00.059Z,29.63
2019-06-07T19:39:31.458Z,34.53
2019-06-07T19:42:02.908Z,34.50
2019-06-07T19:44:35.228Z,55.97
2019-06-07T19:47:06.514Z,65.27
2019-06-07T19:49:37.828Z,45.70
2019-06-07T19:52:10.197Z,56.57
2019-06-07T19:54:42.777Z,38.40
2019-06-07T19:57:14.496Z,39.97
2019-06-07T19:59:45.748Z,39.63
2019-06-07T20:02:17.217Z,39.50
2019-06-07T20:04:48.573Z,45.40
2019-06-07T20:07:19.843Z,47.33
2019-06-07T20:09:51.141Z,45.37
2019-06-07T20:12:23.367Z,54.17
2019-06-07T20:15:20.082Z,40.97
2019-06-07T20:17:29.273Z,39.93
2019-06-07T20:20:08.778Z,45.90
2019-06-07T20:22:40.410Z,39.65
2019-06-07T20:25:12.026Z,49.43
2019-06-07T20:27:45.156Z,50.50
2019-06-07T20:30:17.614Z,47.70
2019-06-07T20:32:49.166Z,52.20
2019-06-07T20:35:21.242Z,47.17
2019-06-07T20:37:52.643Z,37.03
2019-06-07T20:40:25.064Z,38.27
2019-06-07T20:42:57.386Z,36.73
2019-06-07T20:45:33.486Z,33.93
2019-06-07T20:48:04.259Z,31.87
2019-06-07T20:50:35.715Z,23.73
2019-06-07T20:53:07.268Z,24.33
2019-06-07T20:55:39.097Z,26.17
2019-06-07T20:58:10.370Z,26.23
2019-06-07T21:00:41.930Z,33.10
2019-06-07T21:03:13.425Z,30.23
2019-06-07T21:05:44.656Z,27.00
2019-06-07T21:08:16.160Z,28.47
2019-06-07T21:10:47.480Z,21.73
2019-06-07T21:13:19.442Z,21.43
2019-06-07T21:15:50.964Z,25.40
2019-06-07T21:18:22.516Z,21.03
2019-06-07T21:20:54.124Z,24.80
2019-06-07T21:23:27.353Z,26.57
2019-06-07T21:26:00.785Z,29.13
2019-06-07T21:28:32.801Z,22.23
2019-06-07T21:31:04.962Z,22.90
2019-06-07T21:33:38.303Z,19.90
2019-06-07T21:36:09.878Z,16.90
2019-06-07T21:38:41.561Z,24.47
2019-06-07T21:41:12.856Z,18.50
2019-06-07T21:43:45.277Z,22.70
2019-06-07T21:46:20.590Z,17.43
2019-06-07T21:48:51.353Z,19.00
2019-06-07T21:51:22.765Z,16.93
2019-06-07T21:53:53.972Z,17.00
2019-06-07T21:56:26.224Z,16.97
2019-06-07T21:58:57.871Z,16.67
2019-06-07T22:01:29.847Z,18.47
2019-06-07T22:04:01.137Z,17.03
2019-06-07T22:06:32.884Z,19.03
2019-06-07T22:09:05.858Z,23.63
2019-06-07T22:11:38.008Z,22.60
2019-06-07T22:14:10.423Z,17.00
2019-06-07T22:16:42.253Z,16.93
2019-06-07T22:19:14.948Z,19.40
2019-06-07T22:22:01.668Z,17.83
2019-06-07T22:24:20.548Z,19.37
2019-06-07T22:26:52.133Z,16.23
2019-06-07T22:29:23.500Z,16.30
2019-06-07T22:31:55.242Z,17.43
2019-06-07T22:34:27.301Z,15.53
2019-06-07T22:36:58.711Z,15.70
2019-06-07T22:39:30.460Z,19.60
2019-06-07T22:42:01.668Z,16.23
2019-06-07T22:44:32.897Z,16.00
2019-06-07T22:47:04.487Z,16.80
2019-06-07T22:49:36.113Z,18.77
2019-06-07T22:52:09.481Z,16.30
2019-06-07T22:54:41.142Z,18.60
2019-06-07T22:57:14.474Z,18.30
2019-06-07T22:59:46.275Z,18.33
2019-06-07T23:02:18.848Z,19.13
2019-06-07T23:04:50.475Z,20.00
2019-06-07T23:07:21.890Z,20.93
2019-06-07T23:09:53.450Z,18.23
2019-06-07T23:12:24.861Z,16.13
2019-06-07T23:14:56.932Z,21.27
2019-06-07T23:17:28.135Z,16.67
2019-06-07T23:20:00.185Z,16.13
2019-06-07T23:22:31.936Z,20.83
2019-06-07T23:25:04.785Z,19.10
2019-06-07T23:27:36.476Z,18.23
2019-06-07T23:30:10.664Z,18.67
2019-06-07T23:32:42.416Z,16.27
2019-06-07T23:35:14.842Z,18.13
2019-06-07T23:37:46.504Z,21.10
2019-06-07T23:40:19.414Z,19.43
2019-06-07T23:42:50.952Z,17.90
2019-06-07T23:45:22.372Z,16.47
2019-06-07T23:47:54.196Z,17.37
2019-06-07T23:50:25.961Z,18.30
2019-06-07T23:52:58.172Z,17.47
2019-06-07T23:55:29.707Z,24.90
2019-06-07T23:58:01.159Z,19.73
